createdAt,value
2018-09-25T00:02:05.312Z,2.47
2018-09-25T00:04:39.445Z,1.93
2018-09-25T00:07:13.661Z,3.03
2018-09-25T00:09:47.881Z,1.80
2018-09-25T00:12:22.158Z,1.63
2018-09-25T00:14:56.380Z,2.37
2018-09-25T00:17:30.589Z,3.27
2018-09-25T00:20:04.855Z,1.20
2018-09-25T00:22:39.247Z,3.17
2018-09-25T00:25:13.441Z,1.40
2018-09-25T00:27:48.117Z,2.43
2018-09-25T00:30:22.545Z,1.50
2018-09-25T00:32:56.837Z,1.57
2018-09-25T00:35:31.403Z,1.43
2018-09-25T00:38:05.689Z,2.00
2018-09-25T00:40:39.940Z,1.27
2018-09-25T00:43:14.251Z,1.30
2018-09-25T00:45:48.502Z,1.07
2018-09-25T00:48:23.249Z,2.37
2018-09-25T00:50:57.677Z,1.53
2018-09-25T00:53:32.169Z,1.03
2018-09-25T00:56:06.726Z,1.87
2018-09-25T00:58:41.774Z,2.43
2018-09-25T01:01:15.883Z,1.47
2018-09-25T01:03:50.025Z,2.00
2018-09-25T01:06:24.907Z,1.87
2018-09-25T01:08:59.206Z,4.73
2018-09-25T01:11:33.757Z,1.47
2018-09-25T01:14:07.780Z,2.93
2018-09-25T01:16:42.826Z,2.00
2018-09-25T01:19:17.132Z,1.20
2018-09-25T01:21:51.638Z,1.97
2018-09-25T01:24:25.945Z,1.17
2018-09-25T01:27:00.258Z,2.63
2018-09-25T01:29:34.378Z,1.00
2018-09-25T01:32:08.629Z,2.30
2018-09-25T01:34:43.453Z,1.23
2018-09-25T01:37:17.853Z,1.90
2018-09-25T01:39:52.278Z,2.33
2018-09-25T01:42:26.527Z,1.07
2018-09-25T01:45:01.081Z,3.70
2018-09-25T01:47:35.541Z,2.13
2018-09-25T01:50:09.849Z,1.23
2018-09-25T01:52:44.294Z,1.83
2018-09-25T01:55:18.603Z,1.30
2018-09-25T01:57:52.893Z,2.50
2018-09-25T02:00:27.661Z,1.47
2018-09-25T02:03:01.972Z,2.57
2018-09-25T02:05:36.421Z,1.67
2018-09-25T02:08:11.207Z,2.00
2018-09-25T02:10:45.569Z,1.40
2018-09-25T02:13:20.745Z,3.13
2018-09-25T02:15:55.042Z,3.03
2018-09-25T02:18:29.579Z,2.30
2018-09-25T02:21:04.182Z,2.70
2018-09-25T02:23:38.482Z,2.13
2018-09-25T02:26:12.843Z,2.93
2018-09-25T02:28:47.257Z,2.00
2018-09-25T02:31:21.602Z,4.23
2018-09-25T02:33:57.142Z,3.53
2018-09-25T02:36:31.582Z,1.80
2018-09-25T02:39:05.762Z,2.13
2018-09-25T02:41:40.349Z,1.77
2018-09-25T02:44:14.886Z,2.87
2018-09-25T02:46:49.266Z,1.40
2018-09-25T02:49:23.535Z,2.20
2018-09-25T02:51:57.642Z,1.00
2018-09-25T02:54:31.837Z,0.83
2018-09-25T02:57:05.882Z,2.00
2018-09-25T02:59:40.070Z,1.67
2018-09-25T03:02:14.231Z,1.30
2018-09-25T03:04:48.423Z,0.67
2018-09-25T03:07:22.679Z,1.33
2018-09-25T03:09:56.979Z,3.03
2018-09-25T03:12:31.239Z,1.57
2018-09-25T03:15:05.651Z,1.53
2018-09-25T03:17:39.692Z,1.87
2018-09-25T03:20:14.142Z,0.90
2018-09-25T03:22:48.537Z,1.73
2018-09-25T03:25:22.783Z,2.53
2018-09-25T03:27:56.785Z,3.00
2018-09-25T03:30:31.286Z,1.63
2018-09-25T03:33:05.455Z,4.50
2018-09-25T03:35:39.805Z,1.30
2018-09-25T03:38:13.973Z,0.77
2018-09-25T03:40:48.414Z,2.00
2018-09-25T03:43:22.517Z,1.73
2018-09-25T03:45:57.123Z,2.30
2018-09-25T03:48:31.342Z,1.60
2018-09-25T03:51:05.429Z,3.67
2018-09-25T03:53:39.817Z,3.53
2018-09-25T03:56:14.090Z,2.00
2018-09-25T03:58:48.144Z,0.87
2018-09-25T04:01:22.422Z,1.53
2018-09-25T04:03:56.573Z,1.80
2018-09-25T04:06:30.931Z,2.73
2018-09-25T04:09:04.990Z,1.17
2018-09-25T04:11:39.746Z,2.50
2018-09-25T04:14:14.022Z,1.17
2018-09-25T04:16:48.462Z,1.40
2018-09-25T04:19:22.876Z,3.17
2018-09-25T04:21:57.241Z,1.57
2018-09-25T04:24:31.566Z,1.83
2018-09-25T04:27:05.802Z,2.37
2018-09-25T04:29:40.114Z,1.23
2018-09-25T04:32:14.843Z,1.10
2018-09-25T04:34:49.045Z,3.17
2018-09-25T04:37:23.216Z,2.03
2018-09-25T04:39:57.536Z,1.27
2018-09-25T04:42:31.833Z,2.90
2018-09-25T04:45:06.258Z,1.50
2018-09-25T04:47:41.313Z,1.87
2018-09-25T04:50:15.792Z,1.33
2018-09-25T04:52:50.154Z,1.00
2018-09-25T04:55:24.393Z,1.17
2018-09-25T04:57:58.563Z,2.10
2018-09-25T05:00:32.859Z,2.27
2018-09-25T05:03:07.990Z,2.40
2018-09-25T05:05:42.350Z,1.27
2018-09-25T05:08:16.726Z,3.03
2018-09-25T05:10:50.977Z,1.83
2018-09-25T05:13:26.025Z,2.20
2018-09-25T05:16:00.559Z,1.20
2018-09-25T05:18:34.962Z,1.93
2018-09-25T05:21:09.293Z,1.53
2018-09-25T05:23:43.831Z,3.63
2018-09-25T05:26:18.324Z,1.50
2018-09-25T05:28:52.397Z,0.90
2018-09-25T05:31:26.832Z,1.80
2018-09-25T05:34:01.155Z,2.53
2018-09-25T05:36:35.483Z,2.50
2018-09-25T05:39:10.740Z,2.23
2018-09-25T05:41:45.242Z,1.70
2018-09-25T05:44:20.325Z,4.40
2018-09-25T05:46:54.499Z,0.90
2018-09-25T05:49:28.862Z,1.77
2018-09-25T05:52:03.190Z,4.27
2018-09-25T05:54:37.512Z,2.00
2018-09-25T05:57:11.580Z,1.67
2018-09-25T05:59:46.179Z,1.57
2018-09-25T06:02:20.623Z,0.87
2018-09-25T06:04:55.076Z,0.80
2018-09-25T06:07:29.436Z,2.40
2018-09-25T06:10:03.847Z,2.80
2018-09-25T06:12:38.399Z,1.70
2018-09-25T06:15:12.910Z,2.53
2018-09-25T06:17:47.095Z,2.43
2018-09-25T06:20:21.600Z,1.63
2018-09-25T06:22:55.914Z,3.57
2018-09-25T06:25:30.513Z,1.23
2018-09-25T06:28:04.694Z,0.70
2018-09-25T06:30:38.989Z,1.40
2018-09-25T06:33:13.354Z,3.30
2018-09-25T06:35:49.001Z,3.37
2018-09-25T06:38:23.414Z,1.83
2018-09-25T06:40:57.742Z,1.90
2018-09-25T06:43:32.040Z,0.60
2018-09-25T06:46:06.414Z,3.53
2018-09-25T06:48:40.577Z,2.00
2018-09-25T06:51:14.920Z,1.13
2018-09-25T06:53:49.099Z,2.20
2018-09-25T06:56:23.407Z,1.07
2018-09-25T06:58:57.762Z,1.10
2018-09-25T07:01:32.646Z,1.53
2018-09-25T07:04:06.848Z,1.07
2018-09-25T07:06:41.208Z,1.30
2018-09-25T07:09:15.765Z,1.63
2018-09-25T07:11:50.620Z,0.77
2018-09-25T07:14:24.908Z,1.50
2018-09-25T07:16:59.090Z,2.00
2018-09-25T07:19:33.448Z,1.27
2018-09-25T07:22:08.692Z,1.77
2018-09-25T07:24:43.220Z,2.13
2018-09-25T07:27:17.549Z,0.97
2018-09-25T07:29:52.329Z,1.07
2018-09-25T07:32:26.559Z,0.80
2018-09-25T07:35:00.957Z,2.00
2018-09-25T07:37:35.239Z,2.30
2018-09-25T07:40:09.550Z,1.33
2018-09-25T07:42:43.618Z,0.70
2018-09-25T07:45:18.039Z,1.70
2018-09-25T07:47:52.969Z,1.03
2018-09-25T07:50:27.382Z,1.57
2018-09-25T07:53:01.685Z,2.93
2018-09-25T07:55:36.142Z,1.33
2018-09-25T07:58:10.386Z,0.90
2018-09-25T08:00:44.541Z,2.43
2018-09-25T08:03:18.719Z,0.73
2018-09-25T08:05:52.743Z,2.83
2018-09-25T08:08:27.087Z,1.93
2018-09-25T08:11:01.194Z,2.50
2018-09-25T08:13:35.652Z,1.43
2018-09-25T08:16:10.208Z,1.90
2018-09-25T08:18:44.890Z,1.70
2018-09-25T08:21:19.243Z,2.30
2018-09-25T08:23:53.457Z,2.83
2018-09-25T08:26:28.083Z,1.70
2018-09-25T08:29:02.531Z,4.40
2018-09-25T08:31:36.937Z,2.00
2018-09-25T08:34:11.278Z,2.33
2018-09-25T08:36:45.714Z,2.00
2018-09-25T08:39:20.019Z,2.33
2018-09-25T08:41:54.114Z,4.53
2018-09-25T08:44:28.177Z,4.20
2018-09-25T08:47:02.542Z,2.57
2018-09-25T08:49:36.677Z,3.93
2018-09-25T08:52:11.040Z,3.17
2018-09-25T08:54:45.338Z,2.03
2018-09-25T08:57:19.670Z,2.17
2018-09-25T08:59:53.825Z,2.30
2018-09-25T09:02:28.226Z,3.00
2018-09-25T09:05:02.799Z,2.93
2018-09-25T09:07:37.402Z,3.10
2018-09-25T09:10:11.789Z,3.30
2018-09-25T09:12:45.886Z,3.07
2018-09-25T09:15:20.164Z,2.47
2018-09-25T09:17:54.281Z,3.13
2018-09-25T09:20:28.767Z,3.17
2018-09-25T09:23:03.067Z,2.73
2018-09-25T09:25:37.515Z,3.87
2018-09-25T09:28:11.813Z,3.58
2018-09-25T09:30:46.209Z,3.83
2018-09-25T09:33:20.426Z,4.37
2018-09-25T09:35:54.761Z,4.28
2018-09-25T09:38:29.023Z,4.03
2018-09-25T09:41:03.506Z,4.17
2018-09-25T09:43:37.649Z,3.22
2018-09-25T09:46:12.090Z,3.98
2018-09-25T09:48:46.119Z,3.83
2018-09-25T09:51:20.426Z,3.33
2018-09-25T09:53:55.156Z,3.20
2018-09-25T09:56:29.552Z,3.72
2018-09-25T09:59:03.617Z,3.52
2018-09-25T10:01:37.943Z,3.90
2018-09-25T10:04:12.295Z,3.75
2018-09-25T10:06:46.705Z,2.60
2018-09-25T10:09:21.033Z,3.65
2018-09-25T10:11:55.446Z,3.75
2018-09-25T10:14:29.674Z,3.62
2018-09-25T10:17:03.847Z,3.92
2018-09-25T10:19:38.006Z,3.75
2018-09-25T10:22:12.525Z,3.47
2018-09-25T10:24:46.866Z,3.45
2018-09-25T10:27:21.259Z,3.58
2018-09-25T10:29:55.492Z,3.62
2018-09-25T10:32:29.748Z,3.62
2018-09-25T10:35:03.753Z,3.35
2018-09-25T10:37:38.208Z,3.90
2018-09-25T10:40:12.634Z,3.83
2018-09-25T10:42:47.140Z,3.47
2018-09-25T10:45:21.521Z,3.40
2018-09-25T10:47:55.821Z,3.80
2018-09-25T10:50:30.224Z,2.95
2018-09-25T10:53:04.516Z,4.03
2018-09-25T10:55:38.977Z,3.33
2018-09-25T10:58:13.174Z,3.60
2018-09-25T11:00:47.278Z,3.25
2018-09-25T11:03:21.643Z,2.95
2018-09-25T11:05:55.770Z,2.20
2018-09-25T11:08:29.981Z,2.15
2018-09-25T11:11:04.025Z,1.85
2018-09-25T11:13:38.459Z,2.40
2018-09-25T11:16:12.761Z,2.12
2018-09-25T11:18:47.140Z,2.33
2018-09-25T11:21:21.336Z,2.05
2018-09-25T11:23:55.536Z,2.33
2018-09-25T11:26:29.826Z,2.85
2018-09-25T11:29:04.037Z,3.25
2018-09-25T11:31:38.172Z,2.90
2018-09-25T11:34:12.442Z,2.75
2018-09-25T11:36:46.607Z,2.95
2018-09-25T11:39:20.878Z,2.92
2018-09-25T11:41:55.254Z,2.90
2018-09-25T11:44:29.803Z,2.75
2018-09-25T11:47:04.203Z,2.55
2018-09-25T11:49:38.987Z,1.87
2018-09-25T11:52:13.229Z,1.72
2018-09-25T11:54:47.701Z,1.70
2018-09-25T11:57:22.021Z,1.45
2018-09-25T11:59:56.435Z,1.50
2018-09-25T12:02:30.601Z,1.57
2018-09-25T12:05:04.953Z,1.25
2018-09-25T12:07:39.110Z,1.27
2018-09-25T12:10:13.372Z,1.13
2018-09-25T12:12:47.371Z,1.07
2018-09-25T12:15:21.931Z,1.17
2018-09-25T12:17:56.219Z,2.10
2018-09-25T12:20:30.619Z,1.00
2018-09-25T12:23:05.197Z,0.87
2018-09-25T12:25:39.742Z,3.73
2018-09-25T12:28:14.053Z,1.80
2018-09-25T12:30:48.326Z,1.03
2018-09-25T12:33:22.626Z,0.80
2018-09-25T12:35:56.881Z,0.70
2018-09-25T12:38:31.297Z,0.67
2018-09-25T12:41:05.817Z,0.50
2018-09-25T12:43:40.073Z,0.60
2018-09-25T12:46:14.821Z,0.60
2018-09-25T12:48:49.170Z,0.70
2018-09-25T12:51:23.625Z,0.83
2018-09-25T12:53:57.766Z,0.63
2018-09-25T12:56:32.634Z,0.50
2018-09-25T12:59:06.740Z,0.90
2018-09-25T13:01:41.602Z,0.60
2018-09-25T13:04:15.994Z,0.70
2018-09-25T13:06:50.560Z,0.60
2018-09-25T13:09:25.035Z,0.73
2018-09-25T13:11:59.915Z,0.70
2018-09-25T13:14:34.406Z,1.20
2018-09-25T13:17:08.905Z,2.63
2018-09-25T13:19:44.406Z,0.63
2018-09-25T13:22:18.909Z,0.70
2018-09-25T13:24:53.272Z,0.60
2018-09-25T13:27:27.528Z,0.60
2018-09-25T13:30:01.796Z,0.70
2018-09-25T13:32:36.315Z,0.67
2018-09-25T13:35:10.966Z,0.60
2018-09-25T13:37:45.276Z,0.70
2018-09-25T13:40:19.468Z,0.90
2018-09-25T13:42:53.777Z,0.80
2018-09-25T13:45:27.854Z,0.50
2018-09-25T13:48:02.219Z,0.67
2018-09-25T13:50:36.347Z,0.70
2018-09-25T13:53:10.511Z,0.50
2018-09-25T13:55:44.704Z,0.70
2018-09-25T13:58:19.068Z,2.00
2018-09-25T14:00:53.359Z,0.70
2018-09-25T14:03:27.822Z,0.80
2018-09-25T14:06:01.994Z,0.60
2018-09-25T14:08:36.198Z,0.50
2018-09-25T14:11:10.518Z,0.40
2018-09-25T14:13:44.824Z,0.60
2018-09-25T14:16:19.256Z,1.13
2018-09-25T14:18:53.598Z,0.70
2018-09-25T14:21:27.975Z,0.90
2018-09-25T14:24:02.415Z,1.60
2018-09-25T14:26:36.614Z,1.47
2018-09-25T14:29:10.873Z,0.70
2018-09-25T14:31:45.372Z,1.00
2018-09-25T14:34:19.697Z,0.70
2018-09-25T14:36:54.321Z,0.70
2018-09-25T14:39:28.761Z,0.53
2018-09-25T14:42:03.151Z,3.70
2018-09-25T14:44:37.564Z,1.07
2018-09-25T14:47:12.080Z,0.77
2018-09-25T14:49:46.532Z,0.70
2018-09-25T14:52:20.822Z,0.60
2018-09-25T14:54:55.029Z,0.77
2018-09-25T14:57:29.229Z,0.80
2018-09-25T15:00:03.567Z,0.70
2018-09-25T15:02:37.925Z,2.03
2018-09-25T15:05:12.277Z,0.70
2018-09-25T15:07:46.533Z,0.60
2018-09-25T15:10:20.830Z,0.73
2018-09-25T15:12:54.885Z,1.20
2018-09-25T15:15:29.302Z,0.50
2018-09-25T15:18:03.641Z,1.60
2018-09-25T15:20:37.973Z,0.83
2018-09-25T15:23:12.251Z,2.30
2018-09-25T15:25:46.499Z,0.40
2018-09-25T15:28:20.731Z,0.50
2018-09-25T15:30:55.013Z,0.60
2018-09-25T15:33:29.517Z,0.80
2018-09-25T15:36:03.786Z,0.50
2018-09-25T15:38:38.172Z,0.80
2018-09-25T15:41:12.694Z,0.77
2018-09-25T15:43:47.067Z,1.30
2018-09-25T15:46:21.234Z,0.60
2018-09-25T15:48:55.579Z,0.97
2018-09-25T15:51:29.837Z,0.73
2018-09-25T15:54:04.045Z,0.80
2018-09-25T15:56:38.506Z,0.70
2018-09-25T15:59:12.698Z,0.50
2018-09-25T16:01:47.086Z,0.97
2018-09-25T16:04:21.522Z,0.70
2018-09-25T16:06:55.697Z,0.80
2018-09-25T16:09:29.891Z,2.50
2018-09-25T16:12:04.157Z,0.70
2018-09-25T16:14:38.245Z,1.87
2018-09-25T16:17:12.429Z,2.30
2018-09-25T16:19:46.949Z,1.00
2018-09-25T16:22:21.354Z,1.00
2018-09-25T16:24:55.480Z,0.73
2018-09-25T16:27:29.827Z,0.80
2018-09-25T16:30:04.134Z,0.70
2018-09-25T16:32:38.927Z,0.80
2018-09-25T16:35:13.767Z,1.70
2018-09-25T16:37:48.606Z,0.70
2018-09-25T16:40:22.989Z,0.50
2018-09-25T16:42:57.684Z,1.57
2018-09-25T16:45:32.366Z,0.67
2018-09-25T16:48:06.558Z,0.93
2018-09-25T16:50:40.817Z,2.13
2018-09-25T16:53:15.437Z,0.90
2018-09-25T16:55:49.753Z,1.20
2018-09-25T16:58:24.099Z,0.60
2018-09-25T17:00:58.479Z,0.63
2018-09-25T17:03:32.872Z,1.13
2018-09-25T17:06:07.120Z,0.97
2018-09-25T17:08:41.549Z,2.03
2018-09-25T17:11:16.013Z,0.70
2018-09-25T17:13:50.203Z,0.63
2018-09-25T17:16:24.547Z,0.97
2018-09-25T17:18:59.090Z,1.33
2018-09-25T17:21:33.446Z,0.50
2018-09-25T17:24:07.614Z,0.97
2018-09-25T17:26:42.286Z,1.17
2018-09-25T17:29:16.632Z,0.97
2018-09-25T17:31:51.108Z,0.97
2018-09-25T17:34:25.525Z,0.70
2018-09-25T17:36:59.453Z,1.67
2018-09-25T17:39:33.948Z,0.70
2018-09-25T17:42:08.146Z,1.07
2018-09-25T17:44:49.074Z,1.53
2018-09-25T17:47:23.509Z,0.60
2018-09-25T17:49:57.835Z,1.03
2018-09-25T17:52:32.932Z,1.40
2018-09-25T17:55:07.245Z,0.63
2018-09-25T17:57:41.394Z,1.97
2018-09-25T18:00:15.713Z,0.60
2018-09-25T18:02:50.105Z,3.03
2018-09-25T18:05:24.317Z,1.17
2018-09-25T18:07:58.565Z,1.60
2018-09-25T18:10:32.856Z,0.73
2018-09-25T18:13:06.867Z,0.93
2018-09-25T18:15:41.343Z,0.60
2018-09-25T18:18:15.788Z,1.30
2018-09-25T18:20:50.166Z,0.70
2018-09-25T18:23:24.560Z,0.50
2018-09-25T18:25:58.657Z,1.03
2018-09-25T18:28:34.217Z,0.50
2018-09-25T18:31:08.842Z,1.23
2018-09-25T18:33:43.413Z,1.30
2018-09-25T18:36:17.872Z,1.37
2018-09-25T18:38:52.108Z,0.67
2018-09-25T18:41:27.167Z,1.40
2018-09-25T18:44:01.153Z,0.77
2018-09-25T18:46:35.409Z,0.87
2018-09-25T18:49:09.825Z,0.50
2018-09-25T18:51:43.901Z,2.07
2018-09-25T18:54:18.372Z,0.93
2018-09-25T18:56:53.257Z,1.60
2018-09-25T18:59:27.501Z,0.40
2018-09-25T19:02:02.477Z,0.80
2018-09-25T19:04:37.099Z,1.10
2018-09-25T19:07:11.557Z,1.27
2018-09-25T19:09:46.406Z,0.77
2018-09-25T19:12:21.081Z,1.90
2018-09-25T19:14:55.421Z,0.60
2018-09-25T19:17:30.897Z,1.80
2018-09-25T19:20:05.428Z,1.10
2018-09-25T19:22:40.336Z,0.80
2018-09-25T19:25:14.791Z,1.20
2018-09-25T19:27:49.278Z,1.70
2018-09-25T19:30:23.518Z,1.23
2018-09-25T19:32:58.286Z,1.13
2018-09-25T19:35:33.263Z,1.43
2018-09-25T19:38:07.518Z,0.60
2018-09-25T19:40:42.189Z,1.07
2018-09-25T19:43:16.607Z,1.70
2018-09-25T19:45:50.957Z,1.27
2018-09-25T19:48:25.426Z,1.90
2018-09-25T19:50:59.869Z,1.67
2018-09-25T19:53:34.377Z,1.87
2018-09-25T19:56:08.467Z,3.30
2018-09-25T19:58:42.849Z,2.20
2018-09-25T20:01:17.028Z,3.27
2018-09-25T20:03:51.095Z,1.73
2018-09-25T20:06:25.477Z,1.40
2018-09-25T20:08:59.700Z,1.43
2018-09-25T20:11:34.067Z,2.30
2018-09-25T20:14:08.439Z,1.00
2018-09-25T20:16:42.607Z,1.60
2018-09-25T20:19:16.844Z,1.57
2018-09-25T20:21:51.005Z,1.87
2018-09-25T20:24:25.318Z,2.87
2018-09-25T20:26:59.366Z,1.73
2018-09-25T20:29:33.867Z,0.93
2018-09-25T20:32:08.354Z,1.97
2018-09-25T20:34:42.636Z,1.87
2018-09-25T20:37:16.892Z,3.80
2018-09-25T20:39:51.352Z,3.23
2018-09-25T20:42:25.879Z,0.93
2018-09-25T20:45:00.178Z,2.87
2018-09-25T20:47:34.609Z,3.57
2018-09-25T20:50:08.818Z,1.50
2018-09-25T20:52:43.321Z,4.07
2018-09-25T20:55:17.631Z,2.80
2018-09-25T20:57:52.755Z,2.87
2018-09-25T21:00:27.128Z,4.23
2018-09-25T21:03:01.157Z,1.83
2018-09-25T21:05:35.401Z,2.37
2018-09-25T21:08:10.367Z,2.83
2018-09-25T21:10:45.091Z,4.87
2018-09-25T21:13:19.419Z,2.50
2018-09-25T21:15:54.353Z,2.77
2018-09-25T21:18:28.727Z,2.57
2018-09-25T21:21:03.568Z,2.07
2018-09-25T21:23:38.058Z,4.03
2018-09-25T21:26:12.789Z,2.00
2018-09-25T21:28:47.881Z,2.93
2018-09-25T21:31:22.862Z,3.23
2018-09-25T21:33:57.438Z,2.77
2018-09-25T21:36:31.912Z,2.40
2018-09-25T21:39:07.022Z,5.00
2018-09-25T21:41:42.422Z,3.37
2018-09-25T21:44:17.286Z,5.20
2018-09-25T21:46:51.496Z,5.80
2018-09-25T21:49:26.033Z,2.53
2018-09-25T21:52:00.556Z,3.53
2018-09-25T21:54:34.835Z,4.73
2018-09-25T21:57:09.485Z,4.77
2018-09-25T21:59:43.847Z,3.63
2018-09-25T22:02:18.119Z,3.00
2018-09-25T22:04:52.892Z,4.70
2018-09-25T22:07:27.494Z,2.73
2018-09-25T22:10:01.710Z,3.40
2018-09-25T22:12:36.104Z,3.57
2018-09-25T22:15:10.435Z,4.50
2018-09-25T22:17:45.656Z,3.83
2018-09-25T22:20:20.278Z,3.23
2018-09-25T22:22:54.328Z,3.27
2018-09-25T22:25:28.811Z,4.47
2018-09-25T22:28:02.974Z,3.80
2018-09-25T22:30:37.172Z,4.77
2018-09-25T22:33:11.683Z,4.20
2018-09-25T22:35:46.223Z,3.60
2018-09-25T22:38:20.331Z,4.13
2018-09-25T22:40:54.604Z,4.27
2018-09-25T22:43:28.943Z,4.23
2018-09-25T22:46:03.301Z,3.43
2018-09-25T22:48:37.793Z,4.10
2018-09-25T22:51:12.396Z,3.60
2018-09-25T22:53:46.713Z,4.13
2018-09-25T22:56:21.034Z,5.67
2018-09-25T22:58:55.242Z,5.33
2018-09-25T23:01:30.379Z,3.03
2018-09-25T23:04:04.895Z,3.10
2018-09-25T23:06:38.878Z,4.87
2018-09-25T23:09:14.283Z,6.63
2018-09-25T23:11:49.281Z,6.67
2018-09-25T23:14:23.338Z,6.03
2018-09-25T23:16:57.876Z,3.73
2018-09-25T23:19:32.452Z,2.33
2018-09-25T23:22:06.792Z,4.27
2018-09-25T23:24:41.184Z,3.17
2018-09-25T23:27:16.100Z,3.20
2018-09-25T23:29:50.333Z,3.37
2018-09-25T23:32:24.591Z,4.87
2018-09-25T23:34:58.788Z,4.20
2018-09-25T23:37:33.160Z,3.20
2018-09-25T23:40:10.357Z,6.03
2018-09-25T23:42:46.328Z,4.13
2018-09-25T23:45:21.494Z,6.33
2018-09-25T23:48:05.788Z,2.10
2018-09-25T23:50:42.123Z,2.97
2018-09-25T23:53:15.623Z,3.67
2018-09-25T23:55:55.401Z,4.00
2018-09-25T23:58:33.454Z,6.37
